Time;durP1;ratioP1;P1;durP2;ratioP2;P2;SDS_P1;SDS_P2;PMS_P1;PMS_P2;Temp;Humidity;BMP_temperature;BMP_pressure;BME280_temperature;BME280_humidity;BME280_pressure;Samples;Min_cycle;Max_cycle;Signal;HPM_P1;HPM_P2
2023/06/07 00:00:34;;;;;;;10.00;5.72;;;;;;;17.29;74.31;102028.84;4966912;28;20051;-67
2023/06/07 00:03:00;;;;;;;10.80;5.70;;;;;;;17.30;74.10;102033.16;4967931;28;20086;-67
2023/06/07 00:05:31;;;;;;;13.00;6.10;;;;;;;17.22;75.09;102026.00;4954958;28;20055;-68
2023/06/07 00:07:57;;;;;;;10.43;5.47;;;;;;;17.17;75.21;102023.84;4967546;28;20055;-67
2023/06/07 00:10:24;;;;;;;11.15;6.50;;;;;;;17.10;76.42;102024.66;4961781;28;20141;-67
2023/06/07 00:12:50;;;;;;;8.95;4.95;;;;;;;17.03;75.99;102024.44;4967829;28;20110;-67
2023/06/07 00:15:16;;;;;;;10.73;5.90;;;;;;;16.92;77.24;102028.22;4952277;28;20051;-68
2023/06/07 00:17:44;;;;;;;11.55;5.80;;;;;;;16.84;78.46;102022.88;4976072;28;20085;-68
2023/06/07 00:20:12;;;;;;;11.90;6.82;;;;;;;16.85;77.35;102024.53;4962728;28;20054;-67
2023/06/07 00:22:40;;;;;;;11.03;6.17;;;;;;;16.86;77.44;102025.38;4961560;28;20424;-67
2023/06/07 00:25:07;;;;;;;12.95;6.35;;;;;;;16.79;77.25;102025.13;4971702;28;20046;-68
2023/06/07 00:27:34;;;;;;;11.85;6.53;;;;;;;16.74;77.58;102035.38;4956448;28;20353;-67
2023/06/07 00:30:03;;;;;;;12.95;6.55;;;;;;;16.68;78.51;102030.69;4962748;28;20043;-67
2023/06/07 00:32:31;;;;;;;13.77;7.10;;;;;;;16.72;77.42;102026.75;4965904;28;20097;-67
2023/06/07 00:34:58;;;;;;;9.38;5.88;;;;;;;16.70;76.94;102036.66;4960820;28;20055;-67
2023/06/07 00:37:24;;;;;;;14.38;5.68;;;;;;;16.60;77.25;102027.03;4962582;28;20047;-68
2023/06/07 00:39:51;;;;;;;11.23;5.85;;;;;;;16.66;76.26;102022.09;4964645;28;20123;-67
2023/06/07 00:42:17;;;;;;;14.82;6.70;;;;;;;16.61;77.98;102015.44;4960478;28;20075;-68
2023/06/07 00:44:44;;;;;;;14.90;7.07;;;;;;;16.66;77.33;102017.63;4964103;28;20102;-67
2023/06/07 00:47:10;;;;;;;13.52;6.53;;;;;;;16.56;78.72;102008.94;4971641;28;20173;-67
2023/06/07 00:49:37;;;;;;;11.93;6.18;;;;;;;16.52;78.75;102008.44;4959275;28;20101;-67
2023/06/07 00:52:04;;;;;;;11.25;5.90;;;;;;;16.52;78.96;102012.91;4967004;28;20483;-67
2023/06/07 00:54:30;;;;;;;13.23;6.20;;;;;;;16.53;78.01;102012.75;4970864;28;20061;-67
2023/06/07 00:56:57;;;;;;;11.18;5.18;;;;;;;16.50;78.27;102013.06;4953982;28;20055;-67
2023/06/07 00:59:23;;;;;;;15.45;6.10;;;;;;;16.39;80.41;102018.63;4966212;28;20649;-68
2023/06/07 01:01:55;;;;;;;10.50;5.53;;;;;;;16.39;79.83;102023.94;4956330;28;20093;-68
2023/06/07 01:04:23;;;;;;;11.20;5.70;;;;;;;16.36;80.22;102022.41;4959966;28;20169;-68
2023/06/07 01:06:53;;;;;;;12.13;5.65;;;;;;;16.29;81.55;102025.81;4958556;28;20069;-67
2023/06/07 01:09:21;;;;;;;13.63;6.07;;;;;;;16.24;82.33;102033.41;4963438;28;20062;-68
2023/06/07 01:11:50;;;;;;;15.10;6.13;;;;;;;16.18;83.17;102032.22;4962986;28;20054;-68
2023/06/07 01:14:19;;;;;;;12.38;5.93;;;;;;;16.12;82.19;102025.72;4956086;28;20583;-68
2023/06/07 01:16:50;;;;;;;10.25;6.07;;;;;;;16.10;83.02;102032.16;4958755;28;20086;-68
2023/06/07 01:19:22;;;;;;;13.82;5.80;;;;;;;16.12;83.23;102028.34;4949314;28;20047;-67
2023/06/07 01:21:51;;;;;;;15.00;5.53;;;;;;;16.09;82.86;102025.19;4958408;28;20507;-67
2023/06/07 01:24:18;;;;;;;10.95;5.85;;;;;;;16.11;81.17;102025.84;4948370;28;20471;-68
2023/06/07 01:26:47;;;;;;;10.93;5.90;;;;;;;16.06;82.24;102026.31;4952818;28;20117;-68
2023/06/07 01:29:15;;;;;;;9.18;5.57;;;;;;;16.08;82.39;102020.88;4957771;28;20074;-68
2023/06/07 01:31:43;;;;;;;9.15;4.80;;;;;;;16.15;79.67;102016.63;4956007;28;20078;-67
2023/06/07 01:34:11;;;;;;;10.65;5.22;;;;;;;16.13;81.38;102010.66;4955373;28;20055;-68
2023/06/07 01:36:39;;;;;;;11.80;5.10;;;;;;;16.06;81.66;102014.91;4961660;28;20058;-67
2023/06/07 01:39:07;;;;;;;;;;;;;;;16.06;82.62;102022.84;4970339;28;20066;-67
2023/06/07 01:41:35;;;;;;;15.15;5.80;;;;;;;16.04;82.41;102017.72;4957959;28;20396;-67
2023/06/07 01:44:02;;;;;;;11.38;5.40;;;;;;;16.01;81.86;102010.91;4964274;28;20292;-67
2023/06/07 01:46:29;;;;;;;9.80;4.90;;;;;;;16.01;81.82;102016.22;4966715;28;20046;-68
2023/06/07 01:48:56;;;;;;;10.80;5.43;;;;;;;15.96;81.56;102007.88;4969009;28;20062;-68
2023/06/07 01:51:22;;;;;;;10.15;4.75;;;;;;;15.94;82.82;102012.50;4965047;28;20694;-67
2023/06/07 01:53:50;;;;;;;9.45;4.97;;;;;;;15.88;83.81;102005.19;4946050;28;20499;-68
2023/06/07 01:56:28;;;;;;;12.15;5.15;;;;;;;15.93;82.70;102005.53;4965968;28;20043;-67
2023/06/07 01:59:10;;;;;;;13.57;5.35;;;;;;;15.87;83.39;102005.31;4945585;28;20134;-67
2023/06/07 02:01:54;;;;;;;12.02;5.07;;;;;;;15.81;83.06;102007.56;4963735;28;20105;-68
2023/06/07 02:04:25;;;;;;;12.02;4.95;;;;;;;15.84;83.18;101997.69;4964498;28;20088;-68
2023/06/07 02:06:54;;;;;;;9.93;4.78;;;;;;;15.76;82.81;101995.81;4963251;28;20085;-68
2023/06/07 02:09:23;;;;;;;6.78;3.75;;;;;;;15.77;81.04;101995.66;4956544;28;20388;-68
2023/06/07 02:11:50;;;;;;;13.48;5.90;;;;;;;15.76;83.03;102004.56;4942288;28;20094;-68
2023/06/07 02:14:20;;;;;;;9.00;4.93;;;;;;;15.72;82.81;101997.91;4962104;28;20848;-68
2023/06/07 02:16:48;;;;;;;9.65;4.93;;;;;;;15.69;84.23;102013.22;4960034;28;20394;-68
2023/06/07 02:19:16;;;;;;;13.18;5.30;;;;;;;15.66;84.10;102009.09;4964098;28;20046;-68
2023/06/07 02:21:43;;;;;;;;;;;;;;;15.63;85.86;102012.03;4955303;28;20061;-68
2023/06/07 02:24:10;;;;;;;13.45;6.10;;;;;;;15.54;86.74;102018.19;4957640;28;19926;-68
2023/06/07 02:26:36;;;;;;;11.70;5.65;;;;;;;15.50;85.65;102014.19;4958674;28;20057;-68
2023/06/07 02:29:03;;;;;;;15.25;5.90;;;;;;;15.44;85.37;102010.34;4959712;28;20055;-68
2023/06/07 02:31:30;;;;;;;13.55;5.88;;;;;;;15.40;86.59;102022.19;4968353;28;20051;-69
2023/06/07 02:33:56;;;;;;;14.10;5.80;;;;;;;15.39;86.77;102026.66;4960978;28;20148;-68
2023/06/07 02:36:25;;;;;;;13.60;5.38;;;;;;;15.37;85.84;102028.63;4969641;28;20054;-68
2023/06/07 02:38:51;;;;;;;12.48;4.88;;;;;;;15.44;85.08;102031.50;4956865;28;20055;-68
2023/06/07 02:41:18;;;;;;;12.18;6.05;;;;;;;15.39;86.21;102012.63;4953633;28;20395;-68
2023/06/07 02:43:44;;;;;;;12.55;5.80;;;;;;;15.40;85.09;102012.44;4963406;28;20074;-68
2023/06/07 02:46:11;;;;;;;8.85;5.38;;;;;;;15.40;85.90;102001.88;4962902;28;20101;-68
2023/06/07 02:48:38;;;;;;;11.48;4.60;;;;;;;15.40;84.10;102012.44;4970781;28;20130;-68
2023/06/07 02:51:05;;;;;;;14.55;6.13;;;;;;;15.33;86.46;102011.41;4961091;28;20089;-68
2023/06/07 02:53:31;;;;;;;12.20;5.20;;;;;;;15.32;84.89;102006.25;4960799;28;20492;-68
2023/06/07 02:55:58;;;;;;;12.32;5.65;;;;;;;15.28;85.46;102011.00;4952371;28;21551;-68
2023/06/07 02:58:24;;;;;;;12.70;5.65;;;;;;;15.23;86.90;102018.56;4980201;28;20097;-68
2023/06/07 03:00:52;;;;;;;13.98;5.18;;;;;;;15.15;87.22;102014.00;4969624;28;20083;-68
2023/06/07 03:03:19;;;;;;;12.90;5.40;;;;;;;15.11;87.85;102023.22;4958454;28;20043;-68
2023/06/07 03:05:48;;;;;;;11.20;4.95;;;;;;;15.09;86.26;102021.66;4956681;28;20482;-68
2023/06/07 03:08:14;;;;;;;14.15;5.63;;;;;;;15.06;89.58;102021.97;4962338;28;20051;-68
2023/06/07 03:10:40;;;;;;;14.43;6.18;;;;;;;15.00;90.39;102026.84;4964754;28;20528;-68
2023/06/07 03:13:07;;;;;;;15.32;5.68;;;;;;;14.97;90.57;102032.41;4966886;28;20102;-68
2023/06/07 03:15:33;;;;;;;13.77;5.68;;;;;;;14.99;90.05;102029.63;4967478;28;20479;-68
2023/06/07 03:18:01;;;;;;;10.20;4.80;;;;;;;14.98;87.81;102028.00;4968213;28;20066;-69
2023/06/07 03:20:28;;;;;;;12.48;4.97;;;;;;;15.03;88.67;102026.59;4963350;28;20046;-68
2023/06/07 03:22:55;;;;;;;12.25;5.25;;;;;;;15.00;88.66;102026.84;4969707;28;20126;-68
2023/06/07 03:25:22;;;;;;;11.18;5.03;;;;;;;15.05;87.56;102026.41;4967644;28;20113;-68
2023/06/07 03:27:48;;;;;;;14.27;4.88;;;;;;;14.96;88.22;102014.91;4972610;28;20555;-68
2023/06/07 03:30:15;;;;;;;12.82;5.03;;;;;;;14.96;88.95;102019.38;4967317;28;20078;-69
2023/06/07 03:32:43;;;;;;;12.02;5.90;;;;;;;15.03;87.27;102020.44;4971489;28;20146;-68
2023/06/07 03:35:09;;;;;;;12.95;5.55;;;;;;;14.98;88.71;102020.88;4966190;28;20082;-68
2023/06/07 03:37:36;;;;;;;12.70;5.95;;;;;;;14.97;88.65;102024.50;4961554;28;20055;-68
2023/06/07 03:40:03;;;;;;;13.60;5.60;;;;;;;14.89;89.57;102024.41;4968443;28;20078;-68
2023/06/07 03:42:30;;;;;;;12.40;5.45;;;;;;;14.91;89.57;102018.97;4962809;28;20058;-68
2023/06/07 03:44:56;;;;;;;11.02;5.05;;;;;;;14.93;88.13;102019.66;4972568;28;20047;-68
2023/06/07 03:47:23;;;;;;;13.60;5.28;;;;;;;14.91;90.05;102018.97;4970757;28;20141;-68
2023/06/07 03:49:49;;;;;;;9.80;4.97;;;;;;;14.95;87.84;102026.44;4958815;28;20063;-68
2023/06/07 03:52:16;;;;;;;13.55;5.20;;;;;;;14.95;89.26;102020.34;4971914;28;20055;-67
2023/06/07 03:54:42;;;;;;;11.40;5.53;;;;;;;14.93;89.61;102025.75;4960424;28;20047;-67
2023/06/07 03:57:10;;;;;;;11.55;5.55;;;;;;;14.89;89.82;102024.41;4963603;28;20078;-68
2023/06/07 03:59:36;;;;;;;11.35;5.22;;;;;;;14.92;89.33;102020.66;4964024;28;20043;-68
2023/06/07 04:02:03;;;;;;;11.20;5.20;;;;;;;14.81;91.39;102021.66;4964406;28;20137;-68
2023/06/07 04:04:32;;;;;;;11.98;5.05;;;;;;;14.77;90.88;102021.09;4965390;28;20134;-68
2023/06/07 04:07:02;;;;;;;14.23;4.70;;;;;;;14.74;91.01;102023.19;4960082;28;20487;-68
2023/06/07 04:09:29;;;;;;;12.43;5.38;;;;;;;14.66;91.70;102026.56;4958341;28;20170;-68
2023/06/07 04:11:56;;;;;;;11.85;4.22;;;;;;;14.62;91.04;102020.75;4951305;28;20109;-68
2023/06/07 04:14:22;;;;;;;12.50;5.00;;;;;;;14.60;91.90;102020.06;4959542;28;20078;-68
2023/06/07 04:16:49;;;;;;;9.93;4.85;;;;;;;14.59;93.14;102030.78;4955927;28;20054;-68
2023/06/07 04:19:16;;;;;;;11.57;5.38;;;;;;;14.58;93.24;102019.38;4963581;28;20146;-68
2023/06/07 04:21:44;;;;;;;11.23;5.10;;;;;;;14.53;92.50;102021.56;4968896;28;20059;-68
2023/06/07 04:24:10;;;;;;;13.68;5.10;;;;;;;14.58;92.50;102021.16;4962935;28;20085;-68
2023/06/07 04:26:41;;;;;;;11.55;5.65;;;;;;;14.57;91.95;102014.25;4954629;28;20102;-68
2023/06/07 04:29:07;;;;;;;11.52;5.32;;;;;;;14.62;93.27;102027.81;4951712;28;20051;-68
2023/06/07 04:31:34;;;;;;;18.55;5.53;;;;;;;14.61;92.23;102027.00;4966168;28;20153;-68
2023/06/07 04:34:01;;;;;;;11.23;5.13;;;;;;;14.65;92.38;102030.19;4965912;28;20616;-68
2023/06/07 04:36:28;;;;;;;10.20;4.90;;;;;;;14.62;94.41;102028.69;4955538;28;20101;-68
2023/06/07 04:39:01;;;;;;;9.15;4.28;;;;;;;14.63;93.57;102030.31;4948332;28;20059;-69
2023/06/07 04:41:32;;;;;;;12.50;5.00;;;;;;;14.59;94.70;102023.66;4967673;28;20781;-69
2023/06/07 04:44:06;;;;;;;12.15;4.68;;;;;;;14.69;92.68;102022.81;4966333;28;20047;-69
2023/06/07 04:46:33;;;;;;;13.50;6.40;;;;;;;14.63;94.16;102013.66;4957455;28;20491;-68
2023/06/07 04:49:00;;;;;;;15.95;5.22;;;;;;;14.71;93.09;102015.59;4970493;28;20054;-68
2023/06/07 04:51:29;;;;;;;12.88;5.25;;;;;;;14.75;93.50;102028.34;4959349;28;20075;-68
2023/06/07 04:53:58;;;;;;;12.10;5.47;;;;;;;14.78;92.36;102022.78;4959896;28;20184;-68
2023/06/07 04:56:28;;;;;;;10.80;4.63;;;;;;;14.83;92.11;102017.88;4953138;28;20050;-68
2023/06/07 04:58:55;;;;;;;12.63;4.93;;;;;;;14.85;93.22;102022.19;4967692;28;20602;-68
2023/06/07 05:01:22;;;;;;;11.00;4.43;;;;;;;14.90;90.36;102031.34;4960996;28;20081;-67
2023/06/07 05:03:50;;;;;;;10.25;4.53;;;;;;;14.96;89.01;102036.06;4961707;28;20050;-67
2023/06/07 05:06:17;;;;;;;13.10;5.22;;;;;;;15.00;92.02;102031.31;4964409;28;20271;-67
2023/06/07 05:08:43;;;;;;;12.02;4.70;;;;;;;15.00;92.50;102034.78;4961187;28;20055;-67
2023/06/07 05:11:10;;;;;;;10.57;4.35;;;;;;;15.07;90.67;102028.91;4949114;28;20057;-68
2023/06/07 05:13:36;;;;;;;10.30;4.40;;;;;;;15.15;91.99;102040.44;4952859;28;20511;-68
2023/06/07 05:16:04;;;;;;;12.52;4.30;;;;;;;15.19;90.78;102035.66;4961296;28;22019;-68
2023/06/07 05:18:30;;;;;;;13.18;4.80;;;;;;;15.29;92.14;102036.47;4953374;28;20063;-68
2023/06/07 05:20:57;;;;;;;11.30;5.10;;;;;;;15.29;92.91;102025.03;4956057;28;20059;-68
2023/06/07 05:23:25;;;;;;;17.33;5.18;;;;;;;15.35;92.80;102025.28;4962565;28;20054;-68
2023/06/07 05:25:52;;;;;;;12.45;5.15;;;;;;;15.43;90.45;102032.47;4952991;28;20057;-68
2023/06/07 05:28:18;;;;;;;14.55;4.50;;;;;;;15.46;89.07;102026.06;4970710;28;20286;-68
2023/06/07 05:30:45;;;;;;;15.27;5.28;;;;;;;15.54;87.04;102029.63;4955923;28;20051;-68
2023/06/07 05:33:12;;;;;;;16.17;4.90;;;;;;;15.62;88.22;102029.72;4966564;28;20090;-68
2023/06/07 05:35:39;;;;;;;11.25;4.32;;;;;;;15.68;87.59;102032.72;4973011;28;20475;-68
2023/06/07 05:38:08;;;;;;;11.98;5.03;;;;;;;15.72;86.42;102042.00;4955664;28;20055;-69
2023/06/07 05:40:35;;;;;;;13.32;5.68;;;;;;;15.72;87.06;102044.66;4958822;28;20158;-71
2023/06/07 05:43:01;;;;;;;10.13;4.63;;;;;;;15.76;87.40;102035.50;4959275;28;20114;-69
2023/06/07 05:45:28;;;;;;;11.80;4.75;;;;;;;15.82;86.44;102045.47;4947985;28;20496;-69
2023/06/07 05:47:55;;;;;;;13.90;4.75;;;;;;;15.84;87.35;102045.28;4966744;28;20173;-69
2023/06/07 05:50:23;;;;;;;12.90;4.90;;;;;;;15.89;87.44;102041.22;4971428;28;20057;-68
2023/06/07 05:52:57;;;;;;;11.57;4.30;;;;;;;15.97;86.00;102053.69;4967905;28;20543;-71
2023/06/07 05:55:25;;;;;;;17.13;5.57;;;;;;;16.00;86.29;102046.28;4965355;28;20054;-65
2023/06/07 05:57:52;;;;;;;11.90;4.57;;;;;;;16.02;86.80;102048.78;4953268;28;20102;-69
2023/06/07 06:00:20;;;;;;;13.90;4.72;;;;;;;16.13;85.79;102053.00;4946816;28;20087;-70
2023/06/07 06:02:46;;;;;;;13.45;5.38;;;;;;;16.15;86.48;102051.88;4948647;28;20051;-69
2023/06/07 06:05:15;;;;;;;10.95;4.10;;;;;;;16.22;84.64;102052.09;4956140;28;20766;-69
2023/06/07 06:07:42;;;;;;;16.80;5.32;;;;;;;16.21;84.98;102051.25;4954345;28;20086;-69
2023/06/07 06:10:10;;;;;;;14.35;5.00;;;;;;;16.20;85.52;102046.94;4970060;28;20785;-69
2023/06/07 06:12:36;;;;;;;12.17;4.83;;;;;;;16.18;85.95;102042.78;4965116;28;20575;-69
2023/06/07 06:15:03;;;;;;;12.65;4.30;;;;;;;16.25;84.93;102046.50;4961961;28;20308;-69
2023/06/07 06:17:30;;;;;;;12.60;4.95;;;;;;;16.27;82.76;102043.69;4966424;28;20406;-69
2023/06/07 06:19:56;;;;;;;12.88;4.80;;;;;;;16.37;82.07;102039.13;4964522;28;20051;-69
2023/06/07 06:22:23;;;;;;;16.83;5.50;;;;;;;16.41;82.29;102048.44;4956775;28;20106;-69
2023/06/07 06:24:49;;;;;;;14.27;5.70;;;;;;;16.35;81.44;102052.53;4968272;28;20043;-69
2023/06/07 06:27:16;;;;;;;13.60;5.95;;;;;;;16.38;81.23;102061.97;4979728;28;20480;-69
2023/06/07 06:29:42;;;;;;;11.02;4.75;;;;;;;16.40;80.70;102063.47;4960814;28;20047;-69
2023/06/07 06:32:10;;;;;;;12.23;5.57;;;;;;;16.37;81.00;102063.78;4964335;28;20513;-69
2023/06/07 06:34:36;;;;;;;10.57;5.78;;;;;;;16.39;81.02;102074.25;4954327;28;20170;-69
2023/06/07 06:37:05;;;;;;;14.52;6.22;;;;;;;16.39;80.86;102072.41;4968139;28;20419;-69
2023/06/07 06:39:32;;;;;;;12.25;5.88;;;;;;;16.39;81.58;102072.41;4952245;28;20090;-69
2023/06/07 06:41:58;;;;;;;18.10;6.13;;;;;;;16.40;81.87;102070.59;4969513;28;20047;-70
2023/06/07 06:44:25;;;;;;;12.77;5.05;;;;;;;16.46;82.00;102079.72;4965629;28;20044;-69
2023/06/07 06:46:51;;;;;;;14.32;6.20;;;;;;;16.44;82.11;102060.53;4951080;28;20326;-69
2023/06/07 06:49:18;;;;;;;17.58;5.97;;;;;;;16.44;82.06;102063.16;4960969;28;20482;-69
2023/06/07 06:51:45;;;;;;;10.73;6.05;;;;;;;16.36;83.88;102070.06;4960728;28;20105;-69
2023/06/07 06:54:12;;;;;;;14.68;6.32;;;;;;;16.36;83.43;102077.19;4960070;28;20057;-69
2023/06/07 06:56:39;;;;;;;18.67;6.40;;;;;;;16.49;81.96;102088.22;4960149;28;20472;-70
2023/06/07 06:59:05;;;;;;;16.38;6.25;;;;;;;16.57;81.94;102085.63;4962555;28;20058;-69
2023/06/07 07:01:48;;;;;;;18.23;6.28;;;;;;;16.65;82.67;102087.50;4952282;28;20081;-69
2023/06/07 07:04:15;;;;;;;16.92;5.68;;;;;;;16.66;83.00;102083.88;4948073;28;20047;-70
2023/06/07 07:06:43;;;;;;;12.53;5.67;;;;;;;16.72;82.48;102082.38;4967869;28;20047;-70
2023/06/07 07:09:12;;;;;;;12.43;5.77;;;;;;;16.75;82.34;102087.38;4930750;28;20074;-69
2023/06/07 07:11:39;;;;;;;16.23;6.63;;;;;;;16.73;82.47;102078.75;4957552;28;20047;-69
2023/06/07 07:14:06;;;;;;;19.58;6.22;;;;;;;16.80;80.83;102074.50;4962558;28;20562;-69
2023/06/07 07:16:33;;;;;;;17.55;7.45;;;;;;;16.69;80.42;102062.34;4956212;28;20047;-71
2023/06/07 07:19:04;;;;;;;12.32;6.20;;;;;;;16.80;80.05;102075.34;4963012;28;20550;-69
2023/06/07 07:21:30;;;;;;;13.18;6.45;;;;;;;16.81;79.61;102076.16;4948939;28;20055;-70
2023/06/07 07:23:57;;;;;;;16.75;6.80;;;;;;;16.83;79.15;102071.56;4961919;28;20054;-68
2023/06/07 07:26:25;;;;;;;17.48;7.13;;;;;;;16.88;79.22;102082.53;4957859;28;20047;-70
2023/06/07 07:28:53;;;;;;;16.95;6.03;;;;;;;16.97;78.92;102091.34;4956919;28;20145;-70
2023/06/07 07:31:21;;;;;;;11.60;5.88;;;;;;;17.05;78.66;102091.38;4963710;28;20526;-70
2023/06/07 07:33:49;;;;;;;14.07;6.10;;;;;;;17.09;79.74;102094.56;4969336;28;20055;-70
2023/06/07 07:36:17;;;;;;;15.77;6.38;;;;;;;17.16;79.20;102087.63;4968274;28;20047;-70
2023/06/07 07:38:45;;;;;;;16.00;5.72;;;;;;;17.29;78.61;102098.63;4951655;28;20051;-70
2023/06/07 07:41:15;;;;;;;17.85;6.93;;;;;;;17.44;77.96;102095.38;4961577;28;20054;-70
2023/06/07 07:43:42;;;;;;;16.13;6.75;;;;;;;17.55;76.64;102100.38;4955220;28;20066;-70
2023/06/07 07:46:09;;;;;;;16.75;6.32;;;;;;;17.72;77.47;102095.94;4965294;28;20074;-69
2023/06/07 07:48:35;;;;;;;15.63;6.70;;;;;;;17.86;76.99;102098.00;4957906;28;20082;-69
2023/06/07 07:51:02;;;;;;;19.98;6.70;;;;;;;18.07;75.74;102094.03;4966066;28;20084;-70
2023/06/07 07:53:28;;;;;;;12.98;5.90;;;;;;;18.22;74.21;102094.22;4956957;28;20150;-70
2023/06/07 07:55:55;;;;;;;15.77;6.93;;;;;;;18.23;72.33;102091.41;4954882;28;20475;-70
2023/06/07 07:58:22;;;;;;;14.98;6.45;;;;;;;18.30;72.62;102094.22;4959053;28;20054;-70
2023/06/07 08:00:49;;;;;;;13.88;5.97;;;;;;;18.33;71.72;102088.56;4952100;28;20443;-69
2023/06/07 08:03:16;;;;;;;16.83;6.25;;;;;;;18.44;70.75;102088.22;4967953;28;20472;-70
2023/06/07 08:05:43;;;;;;;13.30;5.63;;;;;;;18.56;70.55;102084.22;4952241;28;20058;-70
2023/06/07 08:08:09;;;;;;;14.27;6.00;;;;;;;18.61;69.70;102094.34;4961507;28;20075;-70
2023/06/07 08:10:36;;;;;;;14.40;5.97;;;;;;;18.70;69.54;102085.38;4964682;28;20051;-70
2023/06/07 08:13:03;;;;;;;12.50;5.50;;;;;;;18.74;68.97;102088.53;4947312;28;20101;-70
2023/06/07 08:15:31;;;;;;;19.77;6.07;;;;;;;18.89;68.09;102093.97;4970471;28;20050;-70
2023/06/07 08:17:58;;;;;;;14.88;5.75;;;;;;;19.01;68.01;102092.59;4940818;28;20129;-69
2023/06/07 08:20:24;;;;;;;18.77;6.50;;;;;;;19.10;69.08;102104.06;4966785;28;20042;-70
2023/06/07 08:22:53;;;;;;;15.88;5.82;;;;;;;19.23;67.16;102100.84;4957494;28;20435;-70
2023/06/07 08:25:19;;;;;;;;;;;;;;;19.26;66.59;102090.69;4959967;28;20055;-70
2023/06/07 08:27:46;;;;;;;17.60;6.07;;;;;;;19.32;66.70;102094.50;4958355;28;19922;-69
2023/06/07 08:30:13;;;;;;;13.45;6.55;;;;;;;19.45;66.68;102094.78;4957396;28;20088;-69
2023/06/07 08:32:41;;;;;;;15.33;6.00;;;;;;;19.68;67.17;102089.50;4966319;28;20428;-69
2023/06/07 08:35:10;;;;;;;13.15;5.88;;;;;;;19.90;65.54;102084.38;4962133;28;20043;-69
2023/06/07 08:37:38;;;;;;;12.90;6.03;;;;;;;20.06;64.36;102086.91;4964225;28;20054;-69
2023/06/07 08:40:05;;;;;;;10.67;5.60;;;;;;;20.30;63.67;102080.53;4952498;28;20055;-69
2023/06/07 08:42:33;;;;;;;12.00;5.55;;;;;;;20.49;63.38;102075.72;4969505;28;20129;-69
2023/06/07 08:45:00;;;;;;;14.20;7.05;;;;;;;20.72;61.53;102089.84;4967103;28;20078;-69
2023/06/07 08:47:28;;;;;;;15.55;6.10;;;;;;;20.95;61.29;102083.59;4959169;28;20058;-70
2023/06/07 08:49:56;;;;;;;16.00;7.03;;;;;;;21.05;60.91;102081.50;4957275;28;20132;-69
2023/06/07 08:52:24;;;;;;;14.80;6.55;;;;;;;21.39;60.86;102079.22;4947489;28;20071;-69
2023/06/07 08:54:52;;;;;;;;;;;;;;;21.87;59.75;102082.22;4963791;28;20109;-69
2023/06/07 08:57:19;;;;;;;13.05;6.22;;;;;;;21.92;57.40;102083.31;4952081;28;20575;-70
2023/06/07 08:59:47;;;;;;;12.50;5.80;;;;;;;21.83;57.71;102083.63;4967745;28;20047;-69
2023/06/07 09:02:14;;;;;;;;;;;;;;;21.75;57.64;102083.75;4970190;28;20054;-69
2023/06/07 09:04:42;;;;;;;12.25;6.70;;;;;;;21.60;58.43;102081.13;4953363;28;19922;-70
2023/06/07 09:07:09;;;;;;;10.38;6.25;;;;;;;21.48;59.33;102084.31;4930959;28;20055;-70
2023/06/07 09:09:39;;;;;;;14.43;6.95;;;;;;;21.40;59.61;102084.34;4949824;28;20055;-70
2023/06/07 09:12:06;;;;;;;14.00;6.22;;;;;;;21.39;59.60;102088.06;4964365;28;20055;-69
2023/06/07 09:14:34;;;;;;;15.57;6.00;;;;;;;21.28;59.89;102091.19;4962654;28;20050;-69
2023/06/07 09:17:00;;;;;;;13.98;6.68;;;;;;;21.34;59.91;102087.78;4963199;28;20134;-70
2023/06/07 09:19:34;;;;;;;17.23;6.80;;;;;;;21.48;60.57;102080.78;4958642;28;20126;-70
2023/06/07 09:22:05;;;;;;;9.50;5.70;;;;;;;21.57;60.20;102076.16;4960615;28;20050;-70
2023/06/07 09:24:33;;;;;;;14.07;6.65;;;;;;;21.64;59.96;102074.38;4967615;28;20118;-69
2023/06/07 09:27:03;;;;;;;14.20;6.75;;;;;;;21.63;59.27;102073.56;4947691;28;20059;-70
2023/06/07 09:29:38;;;;;;;16.75;6.93;;;;;;;21.63;59.32;102068.22;4962146;28;20755;-70
2023/06/07 09:32:23;;;;;;;15.88;7.57;;;;;;;21.59;60.29;102074.13;4950715;28;20086;-70
2023/06/07 09:34:53;;;;;;;14.43;6.70;;;;;;;21.68;60.18;102073.00;4962902;28;20565;-70
2023/06/07 09:37:22;;;;;;;12.82;6.32;;;;;;;21.67;60.11;102074.81;4964221;28;20113;-70
2023/06/07 09:39:52;;;;;;;16.38;6.60;;;;;;;21.60;60.15;102068.63;4969539;28;20047;-70
2023/06/07 09:42:19;;;;;;;13.30;6.93;;;;;;;21.59;60.58;102066.13;4968304;28;20082;-70
2023/06/07 09:44:46;;;;;;;14.05;6.38;;;;;;;21.54;61.37;102072.00;4957001;28;20106;-70
2023/06/07 09:47:23;;;;;;;11.60;6.70;;;;;;;21.52;63.06;102072.22;4952684;28;20580;-70
2023/06/07 09:49:55;;;;;;;16.60;7.40;;;;;;;21.52;64.46;102071.38;4948843;28;20105;-70
2023/06/07 09:52:22;;;;;;;13.95;7.40;;;;;;;21.48;69.00;102075.44;4962579;28;20051;-69
2023/06/07 09:54:49;;;;;;;17.35;7.35;;;;;;;21.29;73.77;102072.34;4950338;28;20050;-69
2023/06/07 09:57:25;;;;;;;17.92;8.15;;;;;;;21.32;77.50;102071.94;4962687;28;20051;-69
2023/06/07 10:00:13;;;;;;;16.58;8.32;;;;;;;21.29;75.96;102072.34;4958581;28;20090;-70
2023/06/07 10:02:44;;;;;;;13.18;7.75;;;;;;;21.21;80.21;102083.13;4956443;28;20055;-70
2023/06/07 10:05:12;;;;;;;20.05;8.20;;;;;;;21.18;77.66;102086.16;4954393;28;20051;-70
2023/06/07 10:07:45;;;;;;;13.52;7.82;;;;;;;21.12;82.55;102081.56;4959647;28;20081;-69
2023/06/07 10:10:14;;;;;;;14.70;8.15;;;;;;;21.07;79.64;102084.78;4957369;28;20055;-70
2023/06/07 10:12:44;;;;;;;18.42;8.30;;;;;;;21.11;81.60;102079.88;4954310;28;20134;-69
2023/06/07 10:15:18;;;;;;;15.95;9.07;;;;;;;21.11;80.66;102083.41;4951671;28;20543;-70
2023/06/07 10:17:53;;;;;;;17.60;8.18;;;;;;;21.18;79.82;102080.81;4956972;28;20063;-70
2023/06/07 10:20:30;;;;;;;13.98;7.40;;;;;;;21.32;77.05;102071.94;4961121;28;20141;-70
2023/06/07 10:23:06;;;;;;;16.60;7.32;;;;;;;21.31;71.85;102067.63;4949630;28;20051;-70
2023/06/07 10:25:43;;;;;;;13.55;7.93;;;;;;;21.42;71.54;102070.81;4968586;28;20134;-70
2023/06/07 10:28:19;;;;;;;12.90;7.53;;;;;;;21.45;68.78;102063.31;4956040;28;20051;-70
2023/06/07 10:30:55;;;;;;;13.98;7.25;;;;;;;21.65;72.10;102066.19;4954383;28;20047;-70
2023/06/07 10:33:24;;;;;;;13.15;7.35;;;;;;;21.79;68.49;102058.31;4963025;28;20059;-70
2023/06/07 10:35:51;;;;;;;13.02;7.55;;;;;;;21.90;68.06;102050.63;4950509;28;20055;-70
2023/06/07 10:38:18;;;;;;;15.15;8.68;;;;;;;21.98;66.52;102046.16;4963006;28;20051;-71
2023/06/07 10:40:48;;;;;;;17.17;7.82;;;;;;;22.09;63.51;102041.13;4953308;28;20504;-71
2023/06/07 10:43:14;;;;;;;13.63;7.10;;;;;;;22.26;65.08;102044.34;4947170;28;20055;-70
2023/06/07 10:45:42;;;;;;;16.23;8.32;;;;;;;22.43;65.02;102031.53;4966002;28;20488;-71
2023/06/07 10:48:45;;;;;;;16.17;7.72;;;;;;;22.89;63.85;102041.66;4959359;28;20060;-71
2023/06/07 10:51:12;;;;;;;14.13;6.57;;;;;;;22.99;62.29;102038.63;4926947;28;20058;-71
2023/06/07 10:53:56;;;;;;;11.13;6.47;;;;;;;22.99;60.29;102033.28;4961451;28;20055;-71
2023/06/07 10:56:26;;;;;;;11.98;6.65;;;;;;;23.03;58.94;102031.88;4957066;28;20061;-71
2023/06/07 10:58:53;;;;;;;13.57;6.43;;;;;;;23.02;60.06;102024.84;4960341;28;20050;-71
2023/06/07 11:01:26;;;;;;;12.45;5.95;;;;;;;23.13;59.99;102027.97;4958617;28;20078;-71
2023/06/07 11:03:53;;;;;;;13.57;6.28;;;;;;;23.12;58.26;102026.34;4957615;28;20051;-71
2023/06/07 11:06:20;;;;;;;13.43;6.00;;;;;;;23.13;58.03;102018.13;4969255;28;20688;-72
2023/06/07 11:08:47;;;;;;;11.07;6.03;;;;;;;23.18;59.06;102020.19;4959428;28;20875;-73
2023/06/07 11:11:39;;;;;;;13.35;6.07;;;;;;;23.21;58.35;102020.59;4954266;28;20043;-72
2023/06/07 11:14:06;;;;;;;13.80;6.45;;;;;;;23.20;57.61;102026.16;4955005;28;20050;-71
2023/06/07 11:16:33;;;;;;;13.32;6.25;;;;;;;23.36;59.04;102028.44;4959368;28;20042;-72
2023/06/07 11:19:13;;;;;;;15.15;6.15;;;;;;;23.50;58.75;102021.28;4968382;28;20105;-72
2023/06/07 11:21:58;;;;;;;10.75;5.75;;;;;;;23.66;57.81;102025.44;4954370;28;20055;-72
2023/06/07 11:24:24;;;;;;;12.60;5.70;;;;;;;23.72;57.76;102021.09;4949012;28;20484;-72